Time;durP1;ratioP1;P1;durP2;ratioP2;P2;SDS_P1;SDS_P2;PMS_P1;PMS_P2;Temp;Humidity;BMP_temperature;BMP_pressure;BME280_temperature;BME280_humidity;BME280_pressure;Samples;Min_cycle;Max_cycle;Signal;HPM_P1;HPM_P2
2023/08/05 00:00:56;;;;;;;1.10;1.10;;;16.60;99.90;;;;;;5002647;28;20022;-42
2023/08/05 00:03:22;;;;;;;2.63;1.40;;;16.50;99.90;;;;;;4999899;28;20030;-38
2023/08/05 00:05:48;;;;;;;1.40;1.27;;;16.50;99.90;;;;;;4996807;28;20368;-40
2023/08/05 00:08:13;;;;;;;1.67;1.27;;;16.50;99.90;;;;;;5003638;28;20030;-40
2023/08/05 00:10:43;;;;;;;4.47;1.50;;;16.50;99.90;;;;;;4999705;28;20035;-39
2023/08/05 00:13:08;;;;;;;2.25;1.30;;;16.50;99.90;;;;;;5002721;28;20037;-34
2023/08/05 00:15:34;;;;;;;3.03;1.50;;;16.50;99.90;;;;;;5002517;28;20113;-40
2023/08/05 00:18:00;;;;;;;2.92;1.40;;;16.50;99.90;;;;;;5008434;28;20022;-41
2023/08/05 00:20:25;;;;;;;1.90;1.80;;;16.60;99.90;;;;;;5000420;28;20458;-36
2023/08/05 00:22:51;;;;;;;1.70;1.60;;;16.50;99.90;;;;;;4996869;28;20041;-37
2023/08/05 00:25:16;;;;;;;3.35;1.73;;;16.50;99.90;;;;;;5005825;28;20026;-41
2023/08/05 00:27:42;;;;;;;1.80;1.70;;;16.60;99.90;;;;;;5006884;28;20046;-41
2023/08/05 00:30:08;;;;;;;1.92;1.67;;;16.60;99.90;;;;;;5010374;28;20022;-41
2023/08/05 00:32:36;;;;;;;2.22;1.55;;;16.60;99.90;;;;;;5003522;28;20034;-39
2023/08/05 00:35:03;;;;;;;2.10;1.42;;;16.60;99.90;;;;;;5008691;28;20117;-39
2023/08/05 00:37:28;;;;;;;1.60;1.50;;;16.60;99.90;;;;;;5013856;28;20018;-41
2023/08/05 00:39:54;;;;;;;2.15;1.52;;;16.60;99.90;;;;;;5006847;28;20060;-41
2023/08/05 00:42:20;;;;;;;1.80;1.67;;;16.60;99.90;;;;;;5004630;28;20364;-39
2023/08/05 00:44:46;;;;;;;1.50;1.40;;;16.60;99.90;;;;;;4998977;28;20133;-40
2023/08/05 00:47:11;;;;;;;1.65;1.50;;;16.50;99.90;;;;;;5011581;28;20025;-40
2023/08/05 00:49:37;;;;;;;2.55;1.67;;;16.50;99.90;;;;;;5005451;28;20025;-31
2023/08/05 00:52:06;;;;;;;2.55;1.60;;;16.40;99.90;;;;;;5004641;28;20018;-30
2023/08/05 00:54:32;;;;;;;1.90;1.70;;;16.40;99.90;;;;;;5008944;28;20049;-32
2023/08/05 00:56:58;;;;;;;2.08;1.60;;;16.40;99.90;;;;;;5001463;28;20057;-29
2023/08/05 00:59:23;;;;;;;2.40;1.95;;;16.30;99.90;;;;;;4990391;28;20431;-31
2023/08/05 01:01:49;;;;;;;2.10;1.65;;;16.30;99.90;;;;;;5008062;28;20164;-31
2023/08/05 01:04:15;;;;;;;1.77;1.67;;;16.30;99.90;;;;;;5006755;28;20053;-30
2023/08/05 01:06:41;;;;;;;1.60;1.50;;;16.30;99.90;;;;;;5004741;28;20046;-34
2023/08/05 01:09:07;;;;;;;2.95;1.70;;;16.40;99.90;;;;;;5013031;28;20045;-31
2023/08/05 01:11:33;;;;;;;2.05;1.50;;;16.40;99.90;;;;;;5003816;28;20371;-30
2023/08/05 01:13:58;;;;;;;2.22;1.67;;;16.30;99.90;;;;;;5004380;28;20022;-31
2023/08/05 01:16:24;;;;;;;2.30;1.58;;;16.30;99.90;;;;;;5010369;28;20084;-32
2023/08/05 01:18:51;;;;;;;2.30;1.70;;;16.20;99.90;;;;;;5004527;28;20038;-30
2023/08/05 01:21:23;;;;;;;2.72;1.77;;;16.20;99.90;;;;;;5014897;28;20026;-30
2023/08/05 01:24:03;;;;;;;2.10;1.65;;;16.20;99.90;;;;;;5011083;28;20026;-32
2023/08/05 01:26:29;;;;;;;2.50;1.58;;;16.20;99.90;;;;;;4999416;28;20057;-31
2023/08/05 01:28:54;;;;;;;2.72;1.77;;;16.10;99.90;;;;;;5006597;28;20542;-31
2023/08/05 01:31:20;;;;;;;2.83;1.60;;;16.10;99.90;;;;;;5000354;28;20034;-37
2023/08/05 01:33:47;;;;;;;3.25;1.77;;;16.10;99.90;;;;;;5002864;28;20103;-33
2023/08/05 01:36:20;;;;;;;2.20;1.73;;;16.10;99.90;;;;;;5002802;28;20117;-33
2023/08/05 01:38:47;;;;;;;1.92;1.73;;;16.20;99.90;;;;;;5009280;28;20168;-34
2023/08/05 01:41:14;;;;;;;2.42;1.75;;;16.20;99.90;;;;;;5008997;28;20360;-33
2023/08/05 01:43:40;;;;;;;2.22;1.75;;;16.20;99.90;;;;;;5005657;28;20033;-32
2023/08/05 01:46:05;;;;;;;1.90;1.55;;;16.20;99.90;;;;;;5005452;28;20044;-32
2023/08/05 01:48:31;;;;;;;1.95;1.77;;;16.10;99.90;;;;;;5002914;28;20101;-32
2023/08/05 01:50:56;;;;;;;2.75;1.65;;;16.00;99.90;;;;;;5007270;28;20232;-34
2023/08/05 01:53:22;;;;;;;1.90;1.67;;;16.00;99.90;;;;;;5005558;28;20038;-32
2023/08/05 01:55:47;;;;;;;1.88;1.77;;;16.00;99.90;;;;;;5002511;28;20034;-31
2023/08/05 01:58:13;;;;;;;3.33;2.13;;;16.10;99.90;;;;;;5008394;28;20029;-33
2023/08/05 02:00:39;;;;;;;1.90;1.70;;;16.10;99.90;;;;;;5007274;28;20545;-40
2023/08/05 02:03:04;;;;;;;2.40;1.90;;;16.10;99.90;;;;;;5004186;28;20475;-40
2023/08/05 02:05:30;;;;;;;4.05;2.15;;;16.10;99.90;;;;;;5018434;28;20380;-41
2023/08/05 02:07:55;;;;;;;2.03;1.85;;;16.10;99.90;;;;;;5011429;28;20041;-39
2023/08/05 02:10:21;;;;;;;2.67;1.90;;;16.00;99.90;;;;;;4999442;28;20044;-40
2023/08/05 02:12:47;;;;;;;2.13;1.90;;;16.00;99.90;;;;;;5007131;28;20113;-39
2023/08/05 02:15:13;;;;;;;1.90;1.80;;;16.00;99.90;;;;;;5002580;28;20133;-38
2023/08/05 02:17:38;;;;;;;2.75;1.90;;;16.00;99.90;;;;;;5002389;28;20467;-40
2023/08/05 02:20:05;;;;;;;2.47;1.85;;;16.00;99.90;;;;;;4988457;28;20109;-39
2023/08/05 02:22:30;;;;;;;2.00;1.88;;;15.90;99.90;;;;;;5003091;28;20026;-39
2023/08/05 02:24:56;;;;;;;2.28;1.92;;;16.00;99.90;;;;;;5001361;28;20029;-40
2023/08/05 02:27:22;;;;;;;2.80;2.47;;;15.90;99.90;;;;;;5004399;28;20030;-40
2023/08/05 02:29:47;;;;;;;2.10;1.90;;;15.90;99.90;;;;;;5004878;28;20038;-37
2023/08/05 02:32:13;;;;;;;2.15;1.85;;;15.90;99.90;;;;;;5004411;28;20038;-41
2023/08/05 02:34:38;;;;;;;1.80;1.70;;;15.90;99.90;;;;;;5006605;28;20027;-40
2023/08/05 02:37:04;;;;;;;2.13;1.88;;;15.90;99.90;;;;;;4998583;28;20137;-39
2023/08/05 02:39:29;;;;;;;2.13;1.85;;;15.90;99.90;;;;;;5009458;28;20495;-31
2023/08/05 02:41:55;;;;;;;2.20;2.00;;;15.90;99.90;;;;;;5002636;28;20039;-31
2023/08/05 02:44:21;;;;;;;2.15;1.95;;;15.90;99.90;;;;;;5005507;28;20033;-31
2023/08/05 02:46:46;;;;;;;2.55;2.10;;;15.90;99.90;;;;;;5004710;28;20392;-31
2023/08/05 02:49:12;;;;;;;2.72;1.98;;;15.90;99.90;;;;;;5001897;28;20037;-31
2023/08/05 02:51:38;;;;;;;2.70;1.92;;;15.90;99.90;;;;;;5001690;28;20025;-30
2023/08/05 02:54:04;;;;;;;2.22;2.05;;;15.90;99.90;;;;;;5003506;28;20498;-33
2023/08/05 02:56:29;;;;;;;4.13;2.15;;;15.90;99.90;;;;;;5005992;28;20496;-31
2023/08/05 02:58:55;;;;;;;2.58;1.92;;;15.90;99.90;;;;;;5002194;28;20122;-30
2023/08/05 03:01:21;;;;;;;3.00;2.35;;;15.90;99.90;;;;;;5005217;28;20093;-33
2023/08/05 03:03:46;;;;;;;2.15;1.95;;;15.90;99.90;;;;;;5004950;28;20029;-31
2023/08/05 03:06:12;;;;;;;2.20;1.80;;;15.90;99.90;;;;;;5006307;28;20032;-31
2023/08/05 03:08:38;;;;;;;3.85;2.25;;;15.90;99.90;;;;;;5002572;28;20037;-30
2023/08/05 03:11:04;;;;;;;2.58;2.17;;;15.90;99.90;;;;;;5006367;28;20143;-31
2023/08/05 03:13:30;;;;;;;3.20;2.38;;;16.00;99.90;;;;;;5004834;28;20026;-31
2023/08/05 03:15:55;;;;;;;2.50;2.30;;;15.90;99.90;;;;;;5008844;28;20030;-30
2023/08/05 03:18:21;;;;;;;3.22;2.22;;;15.90;99.90;;;;;;5000597;28;20113;-32
2023/08/05 03:20:47;;;;;;;2.38;2.17;;;15.80;99.90;;;;;;4999545;28;20026;-40
2023/08/05 03:23:13;;;;;;;4.70;2.50;;;15.80;99.90;;;;;;5004496;28;20117;-37
2023/08/05 03:25:39;;;;;;;2.72;2.30;;;15.80;99.90;;;;;;5004487;28;20602;-40
2023/08/05 03:28:04;;;;;;;3.65;2.20;;;15.80;99.90;;;;;;5004052;28;20106;-38
2023/08/05 03:30:30;;;;;;;2.33;2.13;;;15.80;99.90;;;;;;5002986;28;20079;-40
2023/08/05 03:32:55;;;;;;;2.70;2.25;;;15.70;99.90;;;;;;5001767;28;20023;-40
2023/08/05 03:35:21;;;;;;;2.20;1.85;;;15.80;99.90;;;;;;5006037;28;20034;-41
2023/08/05 03:37:47;;;;;;;5.22;2.67;;;15.90;99.90;;;;;;5003909;28;20018;-38
2023/08/05 03:40:13;;;;;;;2.65;2.30;;;15.90;99.90;;;;;;4997888;28;20065;-38
2023/08/05 03:42:39;;;;;;;3.67;2.47;;;15.90;99.90;;;;;;4998819;28;20042;-38
2023/08/05 03:45:06;;;;;;;3.03;2.25;;;15.90;99.90;;;;;;5006244;28;20022;-40
2023/08/05 03:47:32;;;;;;;3.60;2.63;;;15.90;99.90;;;;;;5015626;28;20103;-41
2023/08/05 03:49:58;;;;;;;4.40;2.60;;;15.80;99.90;;;;;;5000855;28;20491;-40
2023/08/05 03:52:26;;;;;;;5.13;3.03;;;15.80;99.90;;;;;;5004038;28;20029;-40
2023/08/05 03:54:52;;;;;;;3.50;2.88;;;15.70;99.90;;;;;;5006546;28;20072;-39
2023/08/05 03:57:17;;;;;;;3.78;2.72;;;15.70;99.90;;;;;;4999741;28;20085;-38
2023/08/05 03:59:43;;;;;;;2.83;2.25;;;15.70;99.90;;;;;;5006028;28;20038;-40
2023/08/05 04:02:10;;;;;;;2.80;2.50;;;15.70;99.90;;;;;;5003391;28;20034;-37
2023/08/05 04:04:35;;;;;;;3.15;2.75;;;15.80;99.90;;;;;;5004138;28;20018;-41
2023/08/05 04:07:01;;;;;;;5.85;2.83;;;15.80;99.90;;;;;;5005795;28;20037;-38
2023/08/05 04:09:27;;;;;;;5.70;2.60;;;15.80;99.90;;;;;;4995463;28;20109;-39
2023/08/05 04:11:53;;;;;;;4.30;2.75;;;15.80;99.90;;;;;;5008296;28;20490;-40
2023/08/05 04:14:20;;;;;;;3.80;2.83;;;15.80;99.90;;;;;;5002490;28;20063;-37
2023/08/05 04:16:49;;;;;;;3.85;3.00;;;15.80;99.90;;;;;;5009953;28;20045;-39
2023/08/05 04:19:15;;;;;;;3.60;2.42;;;15.80;99.90;;;;;;5005129;28;20033;-39
2023/08/05 04:21:46;;;;;;;4.18;2.75;;;15.80;99.90;;;;;;5003371;28;20042;-39
2023/08/05 04:24:16;;;;;;;3.33;2.58;;;15.80;99.90;;;;;;5005568;28;20030;-41
2023/08/05 04:26:42;;;;;;;3.40;2.50;;;15.80;99.90;;;;;;5007973;28;20716;-41
2023/08/05 04:29:09;;;;;;;2.90;2.60;;;15.80;99.90;;;;;;5008191;28;20049;-32
2023/08/05 04:31:37;;;;;;;2.67;2.47;;;15.80;99.90;;;;;;5009730;28;20041;-32
2023/08/05 04:34:03;;;;;;;3.67;3.00;;;15.80;99.90;;;;;;4997833;28;20045;-32
2023/08/05 04:36:28;;;;;;;3.55;3.10;;;15.80;99.90;;;;;;5006473;28;20034;-33
2023/08/05 04:38:54;;;;;;;6.32;3.03;;;15.80;99.90;;;;;;5005123;28;20026;-35
2023/08/05 04:41:19;;;;;;;3.75;2.85;;;15.80;99.90;;;;;;5009261;28;20026;-34
2023/08/05 04:43:45;;;;;;;3.95;2.70;;;15.80;99.90;;;;;;5006685;28;20023;-32
2023/08/05 04:46:11;;;;;;;3.92;2.80;;;15.70;99.90;;;;;;4993676;28;20034;-33
2023/08/05 04:48:36;;;;;;;4.88;3.15;;;15.80;99.90;;;;;;4995225;28;20619;-33
2023/08/05 04:51:02;;;;;;;4.80;3.03;;;15.80;99.90;;;;;;4999537;28;20033;-33
2023/08/05 04:53:28;;;;;;;5.30;3.38;;;15.70;99.90;;;;;;5003350;28;20080;-36
2023/08/05 04:55:53;;;;;;;4.88;3.38;;;15.70;99.90;;;;;;5005128;28;20032;-32
2023/08/05 04:58:19;;;;;;;4.97;3.22;;;15.70;99.90;;;;;;5011220;28;20045;-33
2023/08/05 05:00:46;;;;;;;4.03;2.90;;;15.70;99.90;;;;;;4998569;28;20357;-34
2023/08/05 05:03:12;;;;;;;3.88;3.13;;;15.70;99.90;;;;;;5002304;28;20022;-32
2023/08/05 05:05:38;;;;;;;5.05;3.10;;;15.70;99.90;;;;;;5005130;28;20034;-34
2023/08/05 05:08:04;;;;;;;3.50;3.00;;;15.70;99.90;;;;;;5012430;28;20029;-32
2023/08/05 05:10:29;;;;;;;3.40;3.10;;;15.70;99.90;;;;;;5006505;28;20668;-30
2023/08/05 05:12:57;;;;;;;3.42;2.95;;;15.80;99.90;;;;;;4998412;28;20034;-31
2023/08/05 05:15:23;;;;;;;3.85;3.28;;;15.80;99.90;;;;;;5008491;28;20112;-32
2023/08/05 05:17:50;;;;;;;3.40;3.00;;;15.80;99.90;;;;;;5002721;28;20034;-31
2023/08/05 05:20:16;;;;;;;5.30;3.13;;;15.80;99.90;;;;;;5008229;28;20037;-33
2023/08/05 05:22:41;;;;;;;4.10;3.10;;;15.80;99.90;;;;;;5003835;28;20069;-31
2023/08/05 05:25:07;;;;;;;4.65;3.03;;;15.90;99.90;;;;;;4982206;28;20038;-31
2023/08/05 05:27:34;;;;;;;4.35;3.17;;;15.90;99.90;;;;;;5005326;28;20031;-32
2023/08/05 05:30:02;;;;;;;4.72;3.22;;;15.80;99.90;;;;;;5002875;28;20103;-31
2023/08/05 05:32:28;;;;;;;4.47;3.05;;;15.80;99.90;;;;;;4988928;28;20087;-31
2023/08/05 05:34:53;;;;;;;5.93;3.40;;;15.90;99.90;;;;;;5003319;28;20029;-31
2023/08/05 05:37:19;;;;;;;8.88;3.22;;;15.90;99.90;;;;;;5011075;28;20198;-32
2023/08/05 05:39:44;;;;;;;5.20;3.20;;;16.00;99.90;;;;;;5001032;28;20026;-40
2023/08/05 05:42:10;;;;;;;3.95;3.08;;;15.90;99.90;;;;;;5003461;28;20029;-40
2023/08/05 05:44:38;;;;;;;3.80;3.13;;;15.90;99.90;;;;;;4988837;28;20026;-41
2023/08/05 05:47:07;;;;;;;4.40;3.30;;;15.90;99.90;;;;;;4998273;28;20030;-38
2023/08/05 05:49:33;;;;;;;4.07;3.50;;;16.00;99.90;;;;;;4999566;28;20483;-40
2023/08/05 05:51:59;;;;;;;5.25;3.72;;;15.90;99.90;;;;;;4998327;28;20409;-40
2023/08/05 05:54:25;;;;;;;6.07;3.90;;;15.90;99.90;;;;;;5004730;28;20026;-39
2023/08/05 05:56:50;;;;;;;7.20;3.33;;;15.90;99.90;;;;;;5005227;28;20398;-41
2023/08/05 05:59:16;;;;;;;4.65;3.65;;;15.90;99.90;;;;;;5000692;28;20415;-39
2023/08/05 06:01:42;;;;;;;3.83;3.20;;;15.90;99.90;;;;;;5004625;28;20188;-38
2023/08/05 06:04:09;;;;;;;5.85;3.80;;;16.00;99.90;;;;;;5002221;28;20696;-40
2023/08/05 06:06:35;;;;;;;4.35;3.15;;;16.00;99.90;;;;;;4993192;28;20019;-38
2023/08/05 06:09:03;;;;;;;5.32;3.53;;;16.00;99.90;;;;;;4993528;28;20101;-38
2023/08/05 06:11:29;;;;;;;4.45;3.58;;;16.10;99.90;;;;;;5003767;28;20050;-40
2023/08/05 06:13:54;;;;;;;5.35;4.10;;;16.10;99.90;;;;;;5004497;28;20038;-40
2023/08/05 06:16:20;;;;;;;8.48;3.67;;;16.20;99.90;;;;;;4999164;28;20560;-36
2023/08/05 06:18:45;;;;;;;3.67;3.33;;;16.20;99.90;;;;;;5005266;28;20543;-40
2023/08/05 06:21:11;;;;;;;6.22;3.38;;;16.20;99.90;;;;;;5003149;28;20387;-40
2023/08/05 06:23:37;;;;;;;3.47;2.83;;;16.20;99.90;;;;;;4994327;28;20399;-40
2023/08/05 06:26:02;;;;;;;3.45;3.03;;;16.30;99.90;;;;;;5004057;28;20680;-40
2023/08/05 06:28:28;;;;;;;4.22;3.08;;;16.30;99.90;;;;;;4984265;28;20102;-41
2023/08/05 06:30:56;;;;;;;5.50;3.50;;;16.30;99.90;;;;;;4995776;28;20049;-37
2023/08/05 06:33:21;;;;;;;5.25;3.28;;;16.20;99.90;;;;;;4987110;28;20035;-40
2023/08/05 06:35:47;;;;;;;5.00;3.15;;;16.20;99.90;;;;;;4987778;28;20035;-40
2023/08/05 06:38:12;;;;;;;4.55;3.00;;;16.30;99.90;;;;;;4981270;28;20031;-41
2023/08/05 06:40:41;;;;;;;4.75;3.30;;;16.40;99.90;;;;;;4975574;28;20153;-40
2023/08/05 06:43:07;;;;;;;4.80;3.50;;;16.30;99.90;;;;;;4983377;28;20079;-40
2023/08/05 06:45:32;;;;;;;5.43;3.22;;;16.30;99.90;;;;;;4986117;28;20038;-40
2023/08/05 06:47:58;;;;;;;4.68;3.05;;;16.40;99.90;;;;;;4983537;28;20101;-40
2023/08/05 06:50:23;;;;;;;7.63;3.50;;;16.40;99.90;;;;;;4986984;28;20085;-39
2023/08/05 06:52:49;;;;;;;4.72;3.20;;;16.30;99.90;;;;;;4984192;28;20038;-39
2023/08/05 06:55:17;;;;;;;3.42;2.70;;;16.40;99.90;;;;;;4982347;28;20041;-40
2023/08/05 06:57:45;;;;;;;4.78;3.20;;;16.40;99.90;;;;;;4985482;28;20034;-39
2023/08/05 07:00:11;;;;;;;3.50;3.17;;;16.50;99.90;;;;;;4983891;28;20070;-41
2023/08/05 07:02:37;;;;;;;4.60;3.30;;;16.50;99.90;;;;;;4984811;28;20042;-42
2023/08/05 07:05:03;;;;;;;4.60;2.92;;;16.50;99.90;;;;;;4982128;28;20095;-40
2023/08/05 07:07:31;;;;;;;4.38;3.05;;;16.50;99.90;;;;;;4986379;28;20499;-40
2023/08/05 07:10:01;;;;;;;5.22;3.20;;;16.50;99.90;;;;;;4984031;28;20029;-41
2023/08/05 07:12:27;;;;;;;2.97;2.67;;;16.50;99.90;;;;;;4987700;28;20109;-40
2023/08/05 07:14:53;;;;;;;4.47;3.28;;;16.60;99.90;;;;;;4985984;28;20037;-40
2023/08/05 07:17:20;;;;;;;4.63;3.10;;;16.60;99.90;;;;;;4982038;28;20030;-37
2023/08/05 07:19:46;;;;;;;5.13;3.30;;;16.50;99.90;;;;;;4991511;28;20529;-40
2023/08/05 07:22:11;;;;;;;5.20;3.50;;;16.60;99.90;;;;;;4982841;28;20030;-40
2023/08/05 07:24:37;;;;;;;3.60;2.95;;;16.70;99.90;;;;;;4985351;28;20022;-40
2023/08/05 07:27:03;;;;;;;4.50;3.08;;;16.70;99.90;;;;;;4980819;28;20027;-39
2023/08/05 07:29:29;;;;;;;5.28;2.88;;;16.70;99.90;;;;;;4986739;28;20157;-36
2023/08/05 07:31:54;;;;;;;4.32;3.28;;;16.70;99.90;;;;;;4990292;28;20060;-40
2023/08/05 07:34:20;;;;;;;4.55;3.38;;;16.80;99.90;;;;;;4993548;28;20117;-40
2023/08/05 07:36:46;;;;;;;3.40;3.10;;;16.90;99.90;;;;;;5006657;28;20503;-41
2023/08/05 07:39:11;;;;;;;6.38;3.35;;;16.90;99.90;;;;;;5007936;28;20037;-40
2023/08/05 07:41:37;;;;;;;3.45;2.90;;;16.80;99.90;;;;;;5004235;28;20412;-41
2023/08/05 07:44:04;;;;;;;5.07;2.92;;;16.90;99.90;;;;;;5008548;28;20021;-40
2023/08/05 07:46:31;;;;;;;3.70;3.05;;;16.90;99.90;;;;;;5002044;28;20108;-40
2023/08/05 07:48:58;;;;;;;5.32;2.90;;;16.90;99.90;;;;;;5004902;28;20386;-41
2023/08/05 07:51:24;;;;;;;4.53;3.40;;;16.90;99.90;;;;;;5000817;28;20037;-41
2023/08/05 07:53:52;;;;;;;5.03;3.92;;;16.90;99.90;;;;;;5003173;28;20033;-37
2023/08/05 07:56:17;;;;;;;5.28;3.55;;;16.90;99.90;;;;;;5000387;28;20034;-39
2023/08/05 07:58:46;;;;;;;6.38;3.00;;;16.90;99.90;;;;;;5004489;28;20429;-32
2023/08/05 08:01:17;;;;;;;4.95;3.05;;;16.80;99.90;;;;;;5003054;28;20038;-32
2023/08/05 08:03:43;;;;;;;3.60;3.28;;;16.80;99.90;;;;;;4999564;28;20048;-35
2023/08/05 08:06:10;;;;;;;5.32;3.00;;;17.00;99.90;;;;;;5007794;28;20025;-38
2023/08/05 08:08:35;;;;;;;4.53;2.90;;;17.00;99.90;;;;;;5001938;28;20108;-32
2023/08/05 08:11:01;;;;;;;5.55;3.35;;;17.10;99.90;;;;;;4999132;28;20108;-34
2023/08/05 08:13:26;;;;;;;5.45;3.63;;;17.10;99.90;;;;;;5008513;28;20034;-32
2023/08/05 08:15:52;;;;;;;5.65;3.00;;;17.10;99.90;;;;;;5001377;28;20030;-32
2023/08/05 08:18:17;;;;;;;4.72;3.53;;;17.10;99.90;;;;;;4995507;28;20396;-32
2023/08/05 08:20:50;;;;;;;4.28;3.13;;;17.20;99.90;;;;;;5004150;28;20055;-32
2023/08/05 08:23:16;;;;;;;6.45;3.40;;;17.20;99.90;;;;;;5003048;28;20036;-33
2023/08/05 08:25:42;;;;;;;5.57;3.40;;;17.30;99.90;;;;;;4998640;28;20041;-34
2023/08/05 08:28:07;;;;;;;3.97;3.03;;;17.30;99.90;;;;;;4999671;28;20136;-33
2023/08/05 08:30:33;;;;;;;4.03;3.30;;;17.20;99.90;;;;;;4994236;28;20391;-34
2023/08/05 08:32:58;;;;;;;3.70;2.70;;;17.30;99.90;;;;;;5000978;28;20036;-32
2023/08/05 08:35:24;;;;;;;4.82;3.55;;;17.40;99.90;;;;;;4994618;28;20031;-32
2023/08/05 08:37:50;;;;;;;3.35;2.92;;;17.50;99.90;;;;;;4997578;28;20878;-33
2023/08/05 08:40:15;;;;;;;3.30;2.95;;;17.60;99.90;;;;;;5003706;28;20026;-41
2023/08/05 08:42:42;;;;;;;4.43;2.92;;;17.70;99.90;;;;;;5000970;28;20533;-41
2023/08/05 08:45:09;;;;;;;3.92;3.10;;;17.80;99.90;;;;;;5017822;28;20084;-41
2023/08/05 08:47:37;;;;;;;4.32;2.90;;;17.90;99.90;;;;;;5002480;28;20030;-40
2023/08/05 08:50:03;;;;;;;4.28;3.60;;;18.00;99.90;;;;;;5007896;28;20565;-38
2023/08/05 08:52:30;;;;;;;4.07;3.08;;;18.00;99.90;;;;;;5020537;28;20037;-40
2023/08/05 08:54:55;;;;;;;5.25;3.20;;;17.80;99.90;;;;;;4998700;28;20038;-41
2023/08/05 08:57:22;;;;;;;5.50;3.17;;;18.20;99.90;;;;;;4992389;28;20445;-39
2023/08/05 08:59:47;;;;;;;4.57;3.10;;;18.10;99.90;;;;;;5010930;28;20021;-41
2023/08/05 09:02:23;;;;;;;8.43;3.60;;;18.30;99.90;;;;;;5004450;28;20496;-39
2023/08/05 09:04:55;;;;;;;6.05;3.92;;;18.20;99.90;;;;;;5010403;28;20127;-39
2023/08/05 09:07:27;;;;;;;4.28;2.88;;;18.50;99.90;;;;;;5004093;28;20018;-40
2023/08/05 09:09:53;;;;;;;4.75;2.72;;;19.00;99.90;;;;;;5010397;28;20041;-40
2023/08/05 09:12:19;;;;;;;5.28;2.88;;;19.20;99.90;;;;;;5003775;28;20041;-40
2023/08/05 09:14:50;;;;;;;4.50;2.92;;;19.30;99.90;;;;;;5008301;28;20045;-40
2023/08/05 09:17:16;;;;;;;3.88;2.60;;;19.40;99.90;;;;;;5003625;28;20038;-40
2023/08/05 09:19:42;;;;;;;6.03;3.17;;;19.50;99.90;;;;;;5004121;28;20033;-37
2023/08/05 09:22:09;;;;;;;5.53;3.17;;;19.60;99.90;;;;;;5009398;28;20116;-41
2023/08/05 09:24:34;;;;;;;4.95;3.13;;;19.60;99.90;;;;;;5005355;28;20399;-40
2023/08/05 09:27:00;;;;;;;3.42;2.45;;;19.60;99.90;;;;;;5005270;28;20037;-39
2023/08/05 09:29:27;;;;;;;4.22;2.60;;;19.70;99.90;;;;;;5006260;28;20061;-38
2023/08/05 09:32:03;;;;;;;4.70;2.58;;;19.80;99.90;;;;;;5002170;28;20120;-39
2023/08/05 09:34:41;;;;;;;3.50;2.42;;;20.20;99.90;;;;;;5011690;28;20550;-40
2023/08/05 09:37:06;;;;;;;3.17;2.73;;;20.40;99.90;;;;;;5004079;28;20037;-40
2023/08/05 09:39:47;;;;;;;2.80;2.25;;;20.40;99.90;;;;;;4982318;28;20030;-38
2023/08/05 09:42:24;;;;;;;3.47;2.40;;;20.40;99.90;;;;;;5002008;28;20149;-40
2023/08/05 09:44:57;;;;;;;4.28;2.45;;;20.20;99.90;;;;;;5005216;28;20037;-41
2023/08/05 09:47:27;;;;;;;2.90;2.60;;;20.30;99.90;;;;;;5007372;28;20033;-40
2023/08/05 09:49:54;;;;;;;3.10;2.40;;;20.30;99.90;;;;;;4999351;28;20040;-40
2023/08/05 09:52:23;;;;;;;3.40;2.38;;;20.40;99.90;;;;;;5007667;28;20084;-38
2023/08/05 09:55:16;;;;;;;2.97;2.25;;;20.30;99.90;;;;;;4997090;28;20022;-43
2023/08/05 09:57:42;;;;;;;4.32;2.42;;;20.30;99.90;;;;;;5001776;28;20037;-39
2023/08/05 10:00:11;;;;;;;3.00;2.42;;;20.30;99.90;;;;;;5002994;28;20014;-40
2023/08/05 10:02:41;;;;;;;4.80;2.28;;;20.00;99.90;;;;;;4997401;28;20032;-41
2023/08/05 10:05:09;;;;;;;2.45;2.25;;;19.80;99.90;;;;;;5009589;28;20031;-41
2023/08/05 10:07:35;;;;;;;;;;;19.80;99.90;;;;;;5007926;28;20072;-42
2023/08/05 10:10:01;;;;;;;3.88;2.35;;;19.80;99.90;;;;;;5004573;28;20011;-37
2023/08/05 10:12:36;;;;;;;2.75;1.98;;;20.20;99.90;;;;;;5001925;28;20045;-41
2023/08/05 10:15:03;;;;;;;3.65;2.17;;;20.10;99.90;;;;;;5002361;28;20046;-36
2023/08/05 10:17:29;;;;;;;3.57;2.10;;;20.00;99.90;;;;;;4998364;28;20038;-41
2023/08/05 10:19:54;;;;;;;3.53;2.30;;;19.80;99.90;;;;;;5001909;28;20654;-32
2023/08/05 10:22:22;;;;;;;2.42;2.17;;;19.80;99.90;;;;;;5002290;28;20435;-37
2023/08/05 10:24:55;;;;;;;2.75;2.55;;;20.00;99.90;;;;;;5002194;28;20029;-31
2023/08/05 10:27:44;;;;;;;3.33;2.38;;;19.80;99.90;;;;;;5005388;28;20539;-35
2023/08/05 10:30:11;;;;;;;4.40;2.20;;;19.70;99.90;;;;;;4989000;28;20038;-32
2023/08/05 10:32:54;;;;;;;2.53;2.33;;;20.00;99.90;;;;;;4982031;28;20043;-32
2023/08/05 10:35:39;;;;;;;5.28;2.53;;;20.30;99.90;;;;;;4974936;28;20058;-31
2023/08/05 10:38:07;;;;;;;2.90;2.40;;;20.30;99.90;;;;;;4986185;28;20090;-33
2023/08/05 10:40:43;;;;;;;3.13;2.33;;;20.10;99.90;;;;;;4983213;28;20452;-36
2023/08/05 10:43:09;;;;;;;3.67;2.10;;;20.00;99.90;;;;;;4984138;28;20029;-32
2023/08/05 10:45:38;;;;;;;3.55;2.00;;;20.30;99.90;;;;;;4982130;28;20037;-32
2023/08/05 10:48:08;;;;;;;2.08;1.88;;;20.20;99.90;;;;;;4980862;28;20026;-35
2023/08/05 10:50:38;;;;;;;3.03;2.30;;;20.20;99.90;;;;;;4978437;28;20431;-34
2023/08/05 10:53:10;;;;;;;3.63;2.22;;;20.20;99.90;;;;;;4987180;28;20066;-34
2023/08/05 10:55:49;;;;;;;2.28;2.08;;;20.50;99.90;;;;;;4986874;28;20553;-33
2023/08/05 10:58:20;;;;;;;5.85;2.30;;;20.50;99.90;;;;;;4972997;28;20465;-34
2023/08/05 11:00:56;;;;;;;2.78;2.38;;;20.40;99.90;;;;;;4992694;28;20511;-41
2023/08/05 11:03:29;;;;;;;5.63;2.22;;;20.50;99.90;;;;;;4973015;28;20065;-41
2023/08/05 11:05:55;;;;;;;4.38;2.13;;;20.50;99.90;;;;;;4979738;28;20089;-39
2023/08/05 11:08:22;;;;;;;3.65;2.40;;;20.50;99.90;;;;;;4973841;28;20513;-39
2023/08/05 11:10:49;;;;;;;2.88;2.00;;;20.40;99.90;;;;;;4985115;28;20465;-41
2023/08/05 11:13:16;;;;;;;2.60;2.40;;;20.30;99.90;;;;;;4991363;28;20026;-41
2023/08/05 11:15:42;;;;;;;2.10;1.73;;;20.30;99.90;;;;;;4983139;28;20643;-37
2023/08/05 11:18:08;;;;;;;2.55;2.35;;;20.30;99.90;;;;;;4981130;28;20022;-39
2023/08/05 11:20:34;;;;;;;3.42;2.33;;;20.10;99.90;;;;;;4984129;28;20503;-38
2023/08/05 11:23:00;;;;;;;3.00;2.17;;;20.50;99.90;;;;;;4978010;28;20387;-39
2023/08/05 11:25:26;;;;;;;2.28;2.00;;;20.80;99.90;;;;;;4992761;28;20030;-40
2023/08/05 11:27:53;;;;;;;2.00;1.80;;;21.00;99.90;;;;;;4985657;28;20525;-40
2023/08/05 11:30:20;;;;;;;3.83;2.10;;;20.80;99.90;;;;;;5004742;28;20487;-41
2023/08/05 11:32:58;;;;;;;3.20;2.17;;;20.70;99.90;;;;;;5004778;28;20034;-39
2023/08/05 11:35:23;;;;;;;;;;;20.70;99.90;;;;;;5006338;28;20530;-39
2023/08/05 11:37:49;;;;;;;2.40;2.17;;;20.80;99.90;;;;;;5002992;28;19913;-39
2023/08/05 11:40:15;;;;;;;3.30;1.90;;;20.70;99.90;;;;;;5003979;28;20483;-41
2023/08/05 11:42:41;;;;;;;3.50;2.00;;;20.70;99.90;;;;;;5000865;28;20064;-37
2023/08/05 11:45:12;;;;;;;3.13;2.55;;;20.70;99.90;;;;;;4996587;28;20030;-39
2023/08/05 11:47:38;;;;;;;3.97;2.40;;;20.50;99.90;;;;;;5006688;28;20046;-40
2023/08/05 11:50:04;;;;;;;3.60;2.38;;;20.20;99.90;;;;;;5005379;28;20578;-42
2023/08/05 11:52:30;;;;;;;2.50;2.30;;;20.00;99.90;;;;;;5002672;28;20089;-41
2023/08/05 11:55:00;;;;;;;3.30;2.47;;;19.90;99.90;;;;;;5002382;28;20394;-40
2023/08/05 11:57:27;;;;;;;2.20;2.00;;;19.80;99.90;;;;;;5003155;28;20109;-42
2023/08/05 11:59:55;;;;;;;2.95;2.00;;;19.60;99.90;;;;;;5004413;28;20492;-41
2023/08/05 12:02:22;;;;;;;2.53;2.00;;;19.50;99.90;;;;;;5003420;28;20033;-38
2023/08/05 12:04:50;;;;;;;2.60;2.17;;;19.50;99.90;;;;;;5002277;28;20033;-41
2023/08/05 12:07:20;;;;;;;2.70;2.15;;;19.80;99.90;;;;;;5004099;28;20026;-41
2023/08/05 12:10:03;;;;;;;3.25;2.42;;;19.80;99.90;;;;;;4997981;28;20039;-40
2023/08/05 12:12:29;;;;;;;2.50;2.17;;;19.90;99.90;;;;;;5004178;28;20029;-40
2023/08/05 12:15:14;;;;;;;2.30;2.10;;;20.00;99.90;;;;;;5001834;28;20388;-39
2023/08/05 12:17:45;;;;;;;3.60;2.47;;;20.00;99.90;;;;;;5003121;28;20038;-40
2023/08/05 12:20:14;;;;;;;3.70;2.80;;;20.10;99.90;;;;;;5005253;28;20030;-41
2023/08/05 12:22:39;;;;;;;2.67;2.47;;;20.10;99.90;;;;;;5008390;28;20120;-40
2023/08/05 12:25:05;;;;;;;6.20;3.10;;;20.20;99.90;;;;;;5015283;28;20117;-39
2023/08/05 12:27:31;;;;;;;3.88;2.60;;;20.30;99.90;;;;;;5012008;28;20029;-42
2023/08/05 12:29:57;;;;;;;4.03;2.90;;;20.40;99.90;;;;;;5002560;28;20523;-40
2023/08/05 12:32:22;;;;;;;2.72;2.50;;;20.30;99.90;;;;;;4991552;28;20038;-38
2023/08/05 12:34:48;;;;;;;2.42;2.22;;;20.40;99.90;;;;;;5005910;28;20034;-41
2023/08/05 12:37:14;;;;;;;3.85;2.47;;;20.40;99.90;;;;;;5004368;28;20813;-40
2023/08/05 12:39:39;;;;;;;3.25;2.03;;;20.40;99.90;;;;;;5008704;28;20685;-40
2023/08/05 12:42:06;;;;;;;2.55;2.35;;;20.40;99.90;;;;;;5011415;28;20032;-39
2023/08/05 12:44:32;;;;;;;4.40;2.60;;;20.40;99.90;;;;;;5011679;28;20037;-40
2023/08/05 12:46:57;;;;;;;2.85;2.20;;;20.40;99.90;;;;;;5005912;28;20042;-41